Hauptseite
METAR-TAF:

METAR-TAF

Flughäfen :

Honiara, Guadalcanal, Salomonen

Flughafen Honiara

Breite: 09-25S, Länge: 160-03E, Höhe: 8 m

Beobachtung

Neuester Wetterbericht von vor 38 Minuten, um 02:00 UTC
Wind 16 kt aus Ost/Nordost
Temperatur 31°C
Luftfeuchtigkeit 66%
Luftdruck 1011 hPa
Sichtweite 10 km oder mehr
Leicht bewölkt in der Höhe von 2000 ft
Aufgelockert bewölkt in der Höhe von 35000 ft
trockener Dunst

METAR: AGGH 280200Z 07016KT 9999 HZ FEW020 SCT350 31/24 Q1011

Zeit: 13:38 (02:38 UTC)

Prognose

Neuester Wetterbericht von vor 3 Stunden und 28 Minuten, um 23:10 UTC
Gültige Prognose vom 28 um 00 UTC bis 28 um 24 UTC
Wind 12 kt aus Ost
Sichtweite: 1011 m
Leicht bewölkt in der Höhe von 1800 ft
Aufgelockert bewölkt in der Höhe von 3000 ft
(schwach) Schauer, Sprühregen

TAF: AGGH 272310Z 2800/2824 09012KT 9999 -SHDZ FEW018 SCT030 T 31 31 28 25 Q 1012 1010 1009 1011

Wetterbeobachtungen und Prognosen von mehr als 4000 Flughäfen (METAR und TAF Bericht).

Die verfügbaren Stationen werden durch gelbe und rote Markierungen auf der Karte dargestellt.

Führen Sie die Maus auf sie, um den Namen der Station zu sehen.

Darauf klicken, um die Beobachtung von Wetterbeobachtungen und Prognosen zu sehen.

Um die Karte zu ändern : klicken Sie auf den grünen Tasten mit einem schwarzen Kreuz Zum Vergrößern, auf den grünen Button mit einem Gedankenstrich zu verkleinern, oder auf die grünen Pfeile für benachbarte Karten.


METAR-TAF: